Time;durP1;ratioP1;P1;durP2;ratioP2;P2;SDS_P1;SDS_P2;PMS_P1;PMS_P2;Temp;Humidity;BMP_temperature;BMP_pressure;BME280_temperature;BME280_humidity;BME280_pressure;Samples;Min_cycle;Max_cycle;Signal;HPM_P1;HPM_P2
2023/07/06 00:01:28;;;;;;;5.25;2.42;;;16.10;99.90;;;-141.84;52.18;20895.19;4888054;29;20333;-60
2023/07/06 00:03:57;;;;;;;3.35;2.63;;;16.10;99.90;;;-141.84;52.90;20852.50;4886271;29;20227;-60
2023/07/06 00:06:25;;;;;;;3.67;2.50;;;16.00;99.90;;;-141.84;52.72;20883.00;4879926;29;20702;-61
2023/07/06 00:08:55;;;;;;;4.90;2.70;;;16.00;99.90;;;-141.84;52.75;20872.84;4887781;29;20210;-61
2023/07/06 00:11:23;;;;;;;5.05;2.90;;;16.00;99.90;;;-141.84;52.61;20846.41;4911009;29;20300;-61
2023/07/06 00:13:51;;;;;;;3.92;2.72;;;16.00;99.90;;;-141.84;53.17;20862.69;4905950;29;20762;-61
2023/07/06 00:16:21;;;;;;;3.78;2.53;;;15.90;99.90;;;-141.84;53.42;20840.31;4898820;29;20688;-61
2023/07/06 00:18:50;;;;;;;3.47;2.72;;;15.90;99.90;;;-141.84;53.17;20858.59;4909432;29;20236;-61
2023/07/06 00:21:18;;;;;;;3.83;2.78;;;15.90;99.90;;;-141.84;53.27;20899.28;4925036;28;20325;-62
2023/07/06 00:23:47;;;;;;;3.75;2.70;;;15.80;99.90;;;-141.84;52.79;20862.69;4925363;28;20303;-60
2023/07/06 00:26:20;;;;;;;4.10;2.67;;;15.90;99.90;;;-141.84;52.99;20822.03;4906495;29;20236;-60
2023/07/06 00:28:49;;;;;;;3.38;2.25;;;15.90;99.90;;;-141.84;52.92;20891.13;4910553;29;20246;-61
2023/07/06 00:31:31;;;;;;;5.25;2.53;;;15.80;99.90;;;-141.84;52.94;20872.84;4909849;28;20237;-62
2023/07/06 00:34:04;;;;;;;3.55;2.50;;;15.90;99.90;;;-141.84;52.92;20856.56;4909907;28;20737;-61
2023/07/06 00:36:35;;;;;;;3.92;2.75;;;15.90;99.90;;;-141.84;53.43;20889.09;4897596;29;20647;-61
2023/07/06 00:39:04;;;;;;;3.65;2.42;;;15.80;99.90;;;-141.84;53.80;20801.69;4891288;29;20286;-61
2023/07/06 00:41:34;;;;;;;3.80;2.90;;;15.80;99.90;;;-141.84;54.25;20885.03;4891153;29;20758;-62
2023/07/06 00:44:04;;;;;;;4.10;2.70;;;15.70;99.90;;;-141.84;54.01;20805.75;4890789;29;20238;-61
2023/07/06 00:46:40;;;;;;;3.15;2.58;;;15.70;99.90;;;-141.84;54.23;20789.50;4883632;29;20234;-61
2023/07/06 00:49:16;;;;;;;5.43;2.67;;;15.70;99.90;;;-141.84;53.47;20842.34;4890890;29;20238;-61
2023/07/06 00:51:45;;;;;;;4.85;2.67;;;15.70;99.90;;;-141.84;54.01;20824.06;4897325;29;20233;-62
2023/07/06 00:54:19;;;;;;;3.90;2.75;;;15.70;99.90;;;-141.84;54.05;20795.59;4909530;28;20210;-61
2023/07/06 00:56:52;;;;;;;7.35;2.70;;;15.80;99.90;;;-141.84;53.56;20828.13;4898686;29;20761;-61
2023/07/06 00:59:26;;;;;;;6.25;2.83;;;15.70;99.90;;;-141.84;53.34;20874.88;4909491;29;20710;-61
2023/07/06 01:01:55;;;;;;;3.70;3.08;;;15.70;99.90;;;-141.84;53.65;20824.06;4909207;28;20268;-61
2023/07/06 01:04:23;;;;;;;3.90;2.78;;;15.70;99.90;;;-141.84;53.51;20840.31;4900938;28;20752;-62
2023/07/06 01:06:54;;;;;;;3.97;2.78;;;15.70;99.90;;;-141.84;54.02;20799.66;4908985;29;20303;-61
2023/07/06 01:09:25;;;;;;;3.00;2.60;;;15.70;99.90;;;-141.84;53.56;20822.03;4909327;29;20257;-60
2023/07/06 01:11:55;;;;;;;3.00;2.58;;;15.70;99.90;;;-141.84;54.04;20826.09;4914360;29;20750;-61
2023/07/06 01:14:27;;;;;;;4.20;3.08;;;15.60;99.90;;;-141.84;54.20;20793.56;4902231;29;20261;-62
2023/07/06 01:17:07;;;;;;;3.95;2.70;;;15.60;99.90;;;-141.84;54.07;20834.22;4909021;29;20273;-61
2023/07/06 01:20:03;;;;;;;3.28;2.72;;;15.60;99.90;;;-141.84;53.53;20834.22;4917311;29;20309;-60
2023/07/06 01:23:24;;;;;;;4.90;2.70;;;15.60;99.90;;;-141.84;54.39;20787.47;4920340;28;20237;-60
2023/07/06 01:26:14;;;;;;;4.50;3.00;;;15.60;99.90;;;-141.84;54.74;20769.16;4909633;29;20246;-61
2023/07/06 01:29:48;;;;;;;2.50;2.30;;;15.50;99.90;;;-141.84;54.79;20791.53;4903617;29;20242;-61
2023/07/06 01:32:24;;;;;;;3.75;2.40;;;15.50;99.90;;;-141.84;54.31;20771.19;4826590;29;20331;-60
2023/07/06 01:35:01;;;;;;;2.53;2.33;;;15.40;99.90;;;-141.84;54.78;20787.47;4881780;29;20248;-61
2023/07/06 01:37:36;;;;;;;3.17;2.88;;;15.50;99.90;;;-141.84;55.02;20732.56;4889546;29;20787;-62
2023/07/06 01:40:09;;;;;;;5.30;2.90;;;15.40;99.90;;;-141.84;55.13;20759.00;4889008;28;20461;-60
2023/07/06 01:42:40;;;;;;;4.22;2.38;;;15.40;99.90;;;-141.84;55.10;20775.25;4882255;28;20238;-62
2023/07/06 01:45:16;;;;;;;3.40;2.40;;;15.40;99.90;;;-141.84;55.41;20761.03;4890024;29;20233;-62
2023/07/06 01:47:50;;;;;;;4.35;2.10;;;15.40;99.90;;;-141.84;55.87;20740.69;4890351;29;20310;-61
2023/07/06 01:50:26;;;;;;;3.88;2.55;;;15.30;99.90;;;-141.84;55.71;20761.03;4882581;29;20230;-62
2023/07/06 01:53:08;;;;;;;2.88;2.33;;;15.30;99.90;;;-141.84;55.32;20736.63;4889470;29;20234;-61
2023/07/06 01:55:44;;;;;;;2.50;2.20;;;15.30;99.90;;;-141.84;56.13;20752.91;4889466;29;20317;-61
2023/07/06 01:58:23;;;;;;;4.35;2.50;;;15.30;99.90;;;-141.84;55.76;20748.84;4889546;29;20285;-61
2023/07/06 02:00:59;;;;;;;4.05;2.67;;;15.30;99.90;;;-141.84;55.94;20767.13;4889453;29;20245;-61
2023/07/06 02:03:31;;;;;;;3.13;2.30;;;15.20;99.90;;;-141.84;56.16;20732.56;4889475;29;20226;-61
2023/07/06 02:06:01;;;;;;;3.00;2.67;;;15.20;99.90;;;-141.84;56.63;20695.97;4889578;29;20238;-62
2023/07/06 02:08:31;;;;;;;2.72;2.30;;;15.20;99.90;;;-141.84;56.27;20728.50;4882258;29;20206;-61
2023/07/06 02:11:01;;;;;;;2.67;2.20;;;15.20;99.90;;;-141.84;56.84;20693.94;4892635;29;20301;-61
2023/07/06 02:13:29;;;;;;;4.03;2.85;;;15.10;99.90;;;-141.84;57.04;20704.13;4889702;29;20234;-61
2023/07/06 02:15:58;;;;;;;3.58;2.53;;;15.10;99.90;;;-141.84;57.50;20679.72;4888721;29;20729;-60
2023/07/06 02:18:28;;;;;;;4.38;2.65;;;15.00;99.90;;;-141.84;57.82;20651.25;4882085;29;20238;-62
2023/07/06 02:20:57;;;;;;;4.35;2.80;;;14.90;99.90;;;-141.84;58.25;20653.28;4870576;29;20231;-61
2023/07/06 02:23:25;;;;;;;3.33;2.58;;;14.90;99.90;;;-141.84;58.13;20685.81;4871308;29;20265;-61
2023/07/06 02:25:54;;;;;;;3.35;2.40;;;14.90;99.90;;;-141.84;58.54;20675.66;4904591;28;20789;-60
2023/07/06 02:28:24;;;;;;;3.35;2.50;;;14.90;99.90;;;-141.84;58.42;20663.47;4881196;29;20635;-61
2023/07/06 02:30:53;;;;;;;4.93;2.92;;;14.90;99.90;;;-141.84;57.51;20712.25;4889003;28;20606;-60
2023/07/06 02:33:22;;;;;;;2.88;2.45;;;15.00;99.90;;;-141.84;57.33;20708.19;4888076;29;20309;-62
2023/07/06 02:35:51;;;;;;;3.40;2.60;;;15.00;99.90;;;-141.84;57.29;20706.16;4883075;29;20237;-61
2023/07/06 02:38:22;;;;;;;2.47;2.13;;;15.00;99.90;;;-141.84;57.86;20679.72;4881740;29;20231;-64
2023/07/06 02:40:50;;;;;;;3.40;2.50;;;15.00;99.90;;;-141.84;58.13;20671.59;4876709;29;20258;-61
2023/07/06 02:43:19;;;;;;;2.92;2.50;;;15.00;99.90;;;-141.84;58.44;20675.66;4888517;29;20322;-61
2023/07/06 02:45:49;;;;;;;2.72;2.33;;;15.00;99.90;;;-141.84;59.00;20649.22;4888860;29;20321;-61
2023/07/06 02:48:18;;;;;;;3.25;2.30;;;14.90;99.90;;;-141.84;58.64;20675.66;4885569;29;20285;-60
2023/07/06 02:50:49;;;;;;;3.33;2.40;;;14.80;99.90;;;-141.84;58.65;20647.19;4888821;29;20306;-61
2023/07/06 02:53:20;;;;;;;3.40;2.43;;;14.80;99.90;;;-141.84;58.38;20647.19;4889110;29;20329;-61
2023/07/06 02:55:49;;;;;;;3.20;2.43;;;14.80;99.90;;;-141.84;58.70;20659.38;4889072;29;20239;-60
2023/07/06 02:58:18;;;;;;;3.35;2.42;;;14.80;99.90;;;-141.84;59.67;20651.25;4885520;29;20249;-60
2023/07/06 03:00:48;;;;;;;3.17;2.60;;;14.70;99.90;;;-141.84;59.32;20695.97;4888348;29;20250;-61
2023/07/06 03:03:17;;;;;;;4.07;2.50;;;14.70;99.90;;;-141.84;59.53;20639.06;4888750;29;20234;-61
2023/07/06 03:05:47;;;;;;;3.80;2.53;;;14.80;99.90;;;-141.84;59.38;20602.47;4889161;29;20254;-62
2023/07/06 03:08:16;;;;;;;3.10;2.42;;;14.80;99.90;;;-141.84;59.19;20667.53;4886984;29;20326;-61
2023/07/06 03:10:46;;;;;;;3.78;2.70;;;14.90;99.90;;;-141.84;58.36;20691.91;4888320;29;20238;-61
2023/07/06 03:13:17;;;;;;;4.13;2.55;;;14.80;99.90;;;-141.84;59.13;20645.16;4890317;29;20246;-60
2023/07/06 03:15:51;;;;;;;2.92;2.35;;;14.80;99.90;;;-141.84;58.79;20661.44;4887967;29;20341;-61
2023/07/06 03:18:20;;;;;;;5.53;2.45;;;14.80;99.90;;;-141.84;59.74;20614.66;4881253;29;20609;-64
2023/07/06 03:20:49;;;;;;;4.50;2.70;;;14.80;99.90;;;-141.84;59.93;20620.78;4906467;28;20760;-62
2023/07/06 03:23:18;;;;;;;4.17;2.43;;;14.70;99.90;;;-141.84;60.36;20626.88;4899263;28;20289;-61
2023/07/06 03:25:52;;;;;;;5.05;2.92;;;14.70;99.90;;;-141.84;60.32;20616.69;4904490;28;20320;-61
2023/07/06 03:28:24;;;;;;;5.40;2.80;;;14.70;99.90;;;-141.84;60.16;20643.13;4880951;28;20333;-61
2023/07/06 03:30:56;;;;;;;3.35;2.47;;;14.70;99.90;;;-141.84;60.21;20643.13;4888257;29;20541;-62
2023/07/06 03:33:25;;;;;;;3.95;2.22;;;14.70;99.90;;;-141.84;58.84;20695.97;4887616;28;20227;-61
2023/07/06 03:35:54;;;;;;;3.72;2.40;;;14.70;99.90;;;-141.84;58.37;20677.69;4888390;29;20210;-61
2023/07/06 03:38:25;;;;;;;2.63;2.33;;;14.80;99.90;;;-141.84;59.32;20667.53;4880947;29;20683;-62
2023/07/06 03:40:55;;;;;;;5.15;2.60;;;14.90;99.90;;;-141.84;59.41;20667.53;4888083;29;20587;-61
2023/07/06 03:43:23;;;;;;;2.80;2.00;;;14.80;99.90;;;-141.84;59.60;20651.25;4888097;29;20293;-62
2023/07/06 03:45:51;;;;;;;3.88;2.75;;;14.80;99.90;;;-141.84;60.16;20663.47;4887314;29;20747;-61
2023/07/06 03:48:21;;;;;;;2.80;2.35;;;14.70;99.90;;;-141.84;58.86;20675.66;4881758;29;20777;-65
2023/07/06 03:50:52;;;;;;;2.45;2.03;;;14.90;99.90;;;-141.84;60.12;20667.53;4888211;29;20207;-60
2023/07/06 03:53:21;;;;;;;2.22;2.03;;;14.90;99.90;;;-141.84;60.29;20649.22;4888395;29;20957;-61
2023/07/06 03:55:54;;;;;;;3.75;2.20;;;14.90;99.90;;;-141.84;58.35;20710.22;4902936;28;20274;-60
2023/07/06 03:58:23;;;;;;;4.80;2.65;;;15.00;99.90;;;-141.84;58.81;20724.44;4899308;28;20237;-62
2023/07/06 04:00:51;;;;;;;3.03;2.03;;;15.10;99.90;;;-141.84;58.56;20708.19;4905902;28;20240;-61
2023/07/06 04:03:19;;;;;;;3.63;2.42;;;15.00;99.90;;;-141.84;58.83;20677.69;4905763;28;20234;-62
2023/07/06 04:05:48;;;;;;;2.45;2.17;;;15.10;99.90;;;-141.84;59.10;20665.50;4906625;28;20210;-61
2023/07/06 04:08:20;;;;;;;5.10;2.75;;;15.10;99.90;;;-141.84;59.06;20679.72;4905989;28;20597;-61
2023/07/06 04:10:49;;;;;;;4.07;2.38;;;15.10;99.90;;;-141.84;58.91;20718.34;4909153;28;20572;-62
2023/07/06 04:13:19;;;;;;;4.00;2.55;;;15.10;99.90;;;-141.84;57.92;20732.56;4908111;28;20292;-61
2023/07/06 04:15:52;;;;;;;4.40;2.83;;;15.20;99.90;;;-141.84;57.88;20763.06;4906086;28;20309;-62
2023/07/06 04:18:21;;;;;;;3.38;2.55;;;15.30;99.90;;;-141.84;58.51;20754.94;4899260;28;20237;-62
2023/07/06 04:20:49;;;;;;;2.78;2.33;;;15.30;99.90;;;-141.84;58.84;20740.69;4906291;28;20568;-62
2023/07/06 04:23:18;;;;;;;3.22;2.38;;;15.40;99.90;;;-141.84;58.74;20752.91;4906295;28;20265;-61
2023/07/06 04:25:46;;;;;;;2.45;2.20;;;15.40;99.90;;;-141.84;58.48;20767.13;4890006;29;20345;-61
2023/07/06 04:28:15;;;;;;;2.88;2.38;;;15.50;99.90;;;-141.84;58.44;20765.09;4887582;28;20313;-62
2023/07/06 04:30:50;;;;;;;2.47;2.10;;;15.40;99.90;;;-141.84;57.64;20756.97;4884833;29;20257;-61
2023/07/06 04:33:20;;;;;;;3.17;2.28;;;15.60;99.90;;;-141.84;56.82;20817.94;4889918;29;20797;-61
2023/07/06 04:35:52;;;;;;;2.72;2.28;;;15.70;99.90;;;-141.84;56.92;20811.84;4906467;28;20232;-61
2023/07/06 04:38:21;;;;;;;2.80;2.38;;;15.70;99.90;;;-141.84;57.03;20787.47;4898521;28;20265;-62
2023/07/06 04:40:51;;;;;;;3.35;2.30;;;15.70;99.90;;;-141.84;57.04;20809.81;4906511;28;20326;-60
2023/07/06 04:43:20;;;;;;;2.88;2.40;;;15.80;99.90;;;-141.84;56.53;20870.81;4906006;28;20513;-60
2023/07/06 04:45:49;;;;;;;2.85;2.13;;;15.90;99.90;;;-141.84;56.61;20846.41;4906185;28;20230;-61
2023/07/06 04:48:17;;;;;;;2.47;2.20;;;16.10;99.90;;;-141.84;56.54;20907.41;4903018;28;20281;-60
2023/07/06 04:50:46;;;;;;;4.75;2.60;;;16.20;99.90;;;-141.84;55.61;20960.25;4906638;29;20237;-61
2023/07/06 04:53:16;;;;;;;2.63;2.10;;;16.30;99.90;;;-141.84;55.23;20978.56;4905752;28;20325;-61
2023/07/06 04:55:45;;;;;;;2.65;2.20;;;16.40;99.90;;;-141.84;52.18;21281.47;4906257;29;20305;-61
2023/07/06 04:58:14;;;;;;;3.45;2.25;;;17.00;99.90;;;-141.84;46.10;21741.00;4905899;29;20809;-62
2023/07/06 05:00:45;;;;;;;2.63;2.10;;;18.40;99.90;;;-141.84;41.65;22273.78;4900456;29;20670;-62
2023/07/06 05:03:15;;;;;;;2.72;2.10;;;20.00;99.90;;;-141.84;38.92;22684.59;4905490;28;20257;-62
2023/07/06 05:05:46;;;;;;;3.80;2.10;;;21.50;99.90;;;-141.84;36.51;23073.06;4906154;28;20202;-61
2023/07/06 05:08:19;;;;;;;2.53;1.98;;;22.80;99.90;;;-141.84;34.77;23339.53;4906115;29;20238;-63
2023/07/06 05:10:51;;;;;;;3.15;2.00;;;24.00;99.90;;;-141.84;34.59;23498.22;4908502;29;20688;-62
2023/07/06 05:13:22;;;;;;;2.75;2.03;;;24.20;99.90;;;-141.84;33.25;23754.53;4908475;29;20289;-63
2023/07/06 05:15:52;;;;;;;4.10;1.90;;;24.80;99.90;;;-141.84;32.47;23984.44;4907237;29;20302;-61
2023/07/06 05:18:23;;;;;;;2.15;1.92;;;25.20;99.90;;;-141.84;32.13;24124.81;4902600;29;20253;-64
2023/07/06 05:20:57;;;;;;;3.47;2.10;;;25.70;99.90;;;-141.84;32.08;24161.44;4910147;28;20218;-63
2023/07/06 05:23:28;;;;;;;2.97;1.70;;;25.80;99.90;;;-141.84;31.23;24303.88;4909825;28;20238;-62
2023/07/06 05:26:02;;;;;;;2.78;2.00;;;26.00;99.90;;;-141.84;31.43;24267.25;4891760;29;20234;-61
2023/07/06 05:28:31;;;;;;;3.53;1.83;;;25.80;99.90;;;-141.84;32.51;24010.88;4883052;29;20605;-63
2023/07/06 05:31:02;;;;;;;2.85;2.00;;;25.90;99.90;;;-141.84;32.12;24004.78;4904184;29;20234;-62
2023/07/06 05:33:32;;;;;;;2.15;1.95;;;25.50;99.90;;;-141.84;32.94;23915.25;4906983;29;20236;-63
2023/07/06 05:36:01;;;;;;;4.30;2.30;;;25.40;99.90;;;-141.84;33.31;23719.97;4890250;29;20221;-63
2023/07/06 05:38:29;;;;;;;2.33;2.10;;;24.70;99.90;;;-141.84;33.66;23526.69;4884060;29;20215;-61
2023/07/06 05:41:03;;;;;;;2.67;1.83;;;24.40;99.90;;;-141.84;34.62;23201.22;4883703;29;20334;-62
2023/07/06 05:43:31;;;;;;;2.80;1.80;;;24.00;99.90;;;-141.84;36.50;22930.69;4890114;29;20235;-62
2023/07/06 05:45:59;;;;;;;6.20;2.10;;;23.30;99.90;;;-141.84;38.59;22542.22;4889539;29;20317;-61
2023/07/06 05:48:28;;;;;;;3.67;2.20;;;22.70;99.90;;;-141.84;40.53;22275.81;4882033;29;20230;-62
2023/07/06 05:50:57;;;;;;;3.25;1.90;;;22.30;99.90;;;-141.84;42.29;22035.84;4889832;29;20310;-64
2023/07/06 05:53:27;;;;;;;5.25;2.42;;;21.70;99.90;;;-141.84;44.27;21873.16;4890446;29;20211;-63
2023/07/06 05:55:55;;;;;;;4.13;2.53;;;21.20;99.90;;;-141.84;45.03;21789.78;4889849;29;20262;-63
2023/07/06 05:58:24;;;;;;;3.22;2.17;;;20.90;99.90;;;-141.84;45.80;21728.78;4881702;29;20579;-62
2023/07/06 06:00:53;;;;;;;4.45;2.28;;;20.50;99.90;;;-141.84;45.99;21732.84;4889543;29;20787;-63
2023/07/06 06:03:21;;;;;;;2.72;1.90;;;20.40;99.90;;;-141.84;45.89;21747.09;4889293;29;20226;-63
2023/07/06 06:05:51;;;;;;;3.45;2.03;;;20.40;99.90;;;-141.84;46.24;21738.97;4889822;29;20313;-62
2023/07/06 06:08:21;;;;;;;3.97;2.00;;;20.30;99.90;;;-141.84;46.26;21771.50;4882863;29;20674;-66
2023/07/06 06:10:50;;;;;;;5.38;2.10;;;20.40;99.90;;;-141.84;46.24;21720.66;4892358;29;20349;-62
2023/07/06 06:13:19;;;;;;;3.92;2.22;;;20.50;99.90;;;-141.84;46.38;21718.63;4908195;28;20248;-63
2023/07/06 06:15:47;;;;;;;3.55;1.90;;;20.50;99.90;;;-141.84;46.19;21751.16;4892990;29;20238;-63
2023/07/06 06:18:15;;;;;;;4.47;1.90;;;20.50;99.90;;;-141.84;45.58;21749.13;4888996;28;20233;-62
2023/07/06 06:20:44;;;;;;;2.28;1.95;;;20.60;99.90;;;-141.84;45.97;21755.22;4904806;28;20214;-64
2023/07/06 06:23:13;;;;;;;4.60;1.98;;;20.50;99.90;;;-141.84;46.14;21714.56;4908489;28;20269;-63
2023/07/06 06:25:42;;;;;;;5.68;2.10;;;20.40;99.90;;;-141.84;46.08;21743.03;4905552;28;20808;-62
2023/07/06 06:28:11;;;;;;;4.22;1.70;;;20.50;99.90;;;-141.84;45.38;21797.94;4889449;29;20319;-62
2023/07/06 06:30:41;;;;;;;2.67;2.00;;;20.70;99.90;;;-141.84;44.80;21814.19;4882069;29;20333;-62
2023/07/06 06:33:09;;;;;;;2.63;2.00;;;20.80;99.90;;;-141.84;44.54;21793.84;4889367;29;20259;-62
2023/07/06 06:35:38;;;;;;;6.75;2.17;;;20.80;99.90;;;-141.84;44.79;21830.47;4871343;29;20272;-62
2023/07/06 06:38:06;;;;;;;4.97;2.58;;;20.90;99.90;;;-141.84;44.70;21850.78;4873543;29;20282;-63
2023/07/06 06:40:36;;;;;;;4.03;2.22;;;21.00;99.90;;;-141.84;44.45;21865.03;4882403;29;20325;-63
2023/07/06 06:43:05;;;;;;;3.75;2.03;;;21.00;99.90;;;-141.84;44.33;21840.63;4889167;29;20297;-61
2023/07/06 06:45:34;;;;;;;4.60;1.90;;;21.00;99.90;;;-141.84;44.18;21824.34;4888763;29;20318;-63
2023/07/06 06:48:03;;;;;;;2.63;1.63;;;21.10;99.90;;;-141.84;44.51;21808.09;4888625;29;20246;-61
2023/07/06 06:50:31;;;;;;;3.13;2.08;;;21.00;99.90;;;-141.84;44.62;21787.75;4881756;29;20253;-63
2023/07/06 06:53:00;;;;;;;2.80;1.80;;;20.90;99.90;;;-141.84;45.05;21789.78;4888957;29;20266;-62
2023/07/06 06:55:28;;;;;;;2.83;2.10;;;20.90;99.90;;;-141.84;44.61;21789.78;4888606;29;20715;-62
2023/07/06 06:57:56;;;;;;;4.88;2.08;;;21.00;99.90;;;-141.84;44.57;21793.84;4888864;29;20238;-63
2023/07/06 07:00:26;;;;;;;4.00;1.95;;;20.90;99.90;;;-141.84;44.46;21885.38;4880113;29;20787;-63
2023/07/06 07:02:54;;;;;;;4.50;1.90;;;21.00;99.90;;;-141.84;44.51;21797.94;4888806;29;20705;-63
2023/07/06 07:05:22;;;;;;;2.67;1.92;;;20.90;99.90;;;-141.84;44.50;21777.59;4905571;29;20657;-63
2023/07/06 07:07:51;;;;;;;2.35;1.70;;;20.80;99.90;;;-141.84;44.14;21834.53;4890578;29;20800;-63
2023/07/06 07:10:22;;;;;;;3.30;2.13;;;20.90;99.90;;;-141.84;44.54;21834.53;4879983;29;20754;-62
2023/07/06 07:12:52;;;;;;;2.92;1.70;;;20.90;99.90;;;-141.84;44.22;21832.50;4906838;29;20269;-63
2023/07/06 07:15:20;;;;;;;2.80;1.75;;;21.10;99.90;;;-141.84;43.96;21850.78;4895176;29;20242;-63
2023/07/06 07:17:51;;;;;;;2.47;1.85;;;21.10;99.90;;;-141.84;44.18;21816.22;4889030;29;20257;-63
2023/07/06 07:20:19;;;;;;;2.20;1.75;;;21.10;99.90;;;-141.84;45.11;21749.13;4895514;29;20628;-63
2023/07/06 07:22:48;;;;;;;2.63;1.65;;;20.90;99.90;;;-141.84;45.32;21761.31;4898520;29;20659;-63
2023/07/06 07:25:17;;;;;;;3.30;1.85;;;20.80;99.90;;;-141.84;45.15;21773.53;4898616;29;20740;-63
2023/07/06 07:27:46;;;;;;;1.83;1.67;;;20.90;99.90;;;-141.84;44.35;21856.91;4906154;28;20226;-63
2023/07/06 07:30:14;;;;;;;3.08;1.90;;;20.90;99.90;;;-141.84;43.90;21865.03;4906678;29;20210;-62
2023/07/06 07:32:42;;;;;;;3.97;2.05;;;21.00;99.90;;;-141.84;43.53;21913.84;4902741;29;20301;-63
2023/07/06 07:35:12;;;;;;;2.55;1.90;;;21.20;99.90;;;-141.84;43.26;21877.22;4891293;29;20317;-62
2023/07/06 07:37:40;;;;;;;2.03;1.70;;;21.20;99.90;;;-141.84;43.50;21871.13;4888130;29;20230;-62
2023/07/06 07:40:15;;;;;;;2.13;1.60;;;21.30;99.90;;;-141.84;42.94;21903.66;4887885;29;20249;-62
2023/07/06 07:42:46;;;;;;;4.22;1.90;;;21.30;99.90;;;-141.84;43.16;21905.69;4885380;29;20253;-64
2023/07/06 07:45:15;;;;;;;2.38;1.77;;;21.30;99.90;;;-141.84;42.80;21905.69;4887779;29;20631;-62
2023/07/06 07:47:43;;;;;;;3.05;1.80;;;21.30;99.90;;;-141.84;42.84;21879.25;4887709;29;20608;-62
2023/07/06 07:50:12;;;;;;;1.95;1.70;;;21.30;99.90;;;-141.84;43.04;21863.00;4887798;29;20238;-61
2023/07/06 07:52:41;;;;;;;2.83;1.92;;;21.20;99.90;;;-141.84;42.19;21875.19;4880620;29;20623;-63
2023/07/06 07:55:10;;;;;;;4.65;2.80;;;21.20;99.90;;;-141.84;43.03;21897.56;4888053;29;20243;-62
2023/07/06 07:57:39;;;;;;;2.20;1.58;;;21.20;99.90;;;-141.84;42.73;21885.38;4887539;29;20314;-61
2023/07/06 08:00:10;;;;;;;2.38;1.70;;;21.20;99.90;;;-141.84;42.75;21936.19;4888079;29;20262;-63
2023/07/06 08:02:38;;;;;;;3.40;1.73;;;21.30;99.90;;;-141.84;42.01;21926.03;4880310;29;20656;-63
2023/07/06 08:05:09;;;;;;;1.38;1.27;;;21.40;99.90;;;-141.84;41.83;21858.94;4887266;29;20234;-63
2023/07/06 08:07:39;;;;;;;1.80;1.48;;;21.30;99.90;;;-141.84;42.71;21897.56;4887546;29;20238;-62
2023/07/06 08:10:08;;;;;;;2.53;1.80;;;21.30;99.90;;;-141.84;41.75;21926.03;4887426;29;20235;-63
2023/07/06 08:12:37;;;;;;;2.90;1.63;;;21.30;99.90;;;-141.84;41.51;21860.97;4884555;29;20242;-62
2023/07/06 08:15:06;;;;;;;3.45;1.80;;;21.20;99.90;;;-141.84;41.66;21871.13;4887281;29;20286;-63
2023/07/06 08:17:36;;;;;;;3.92;1.40;;;21.20;99.90;;;-141.84;41.44;21871.13;4888373;29;20214;-62
2023/07/06 08:20:11;;;;;;;2.88;1.55;;;21.10;99.90;;;-141.84;42.32;21858.94;4899624;29;20616;-62
2023/07/06 08:23:03;;;;;;;2.35;1.70;;;21.10;99.90;;;-141.84;42.13;21934.16;4906163;29;20737;-62
2023/07/06 08:25:37;;;;;;;3.00;1.65;;;21.10;99.90;;;-141.84;42.08;21899.59;4892258;29;20234;-62
2023/07/06 08:28:06;;;;;;;4.43;1.85;;;21.20;99.90;;;-141.84;40.97;21930.09;4897092;29;20240;-62
2023/07/06 08:30:36;;;;;;;2.33;1.42;;;21.20;99.90;;;-141.84;41.05;21887.41;4897830;28;20226;-61
2023/07/06 08:33:07;;;;;;;2.20;1.50;;;21.30;99.90;;;-141.84;41.40;21875.19;4906521;28;20273;-63
2023/07/06 08:35:35;;;;;;;1.67;1.50;;;21.20;99.90;;;-141.84;40.94;21919.94;4906245;28;20302;-62
2023/07/06 08:38:04;;;;;;;2.85;1.63;;;21.30;99.90;;;-141.84;40.57;21980.94;4889196;29;20695;-62
2023/07/06 08:40:35;;;;;;;2.63;1.50;;;21.50;99.90;;;-141.84;41.00;21974.84;4879914;29;20308;-61
2023/07/06 08:43:08;;;;;;;2.03;1.50;;;21.50;99.90;;;-141.84;40.93;22064.31;4887445;29;20591;-63
2023/07/06 08:45:40;;;;;;;2.30;1.58;;;21.60;99.90;;;-141.84;40.36;21997.19;4887601;29;20318;-62
2023/07/06 08:48:14;;;;;;;2.58;1.30;;;21.60;99.90;;;-141.84;39.24;22003.31;4889172;29;20651;-61
2023/07/06 08:50:48;;;;;;;1.60;1.20;;;21.60;99.90;;;-141.84;38.65;22066.34;4886585;29;20226;-62
2023/07/06 08:53:20;;;;;;;2.35;1.63;;;21.70;99.90;;;-141.84;39.17;22100.91;4891394;29;20710;-62
2023/07/06 08:55:50;;;;;;;2.42;1.38;;;21.90;99.90;;;-141.84;38.76;22119.22;4890148;29;20280;-63
2023/07/06 08:58:26;;;;;;;2.28;1.50;;;22.00;99.90;;;-141.84;38.50;22123.28;4883351;29;20262;-62
2023/07/06 09:01:03;;;;;;;1.83;1.30;;;22.10;99.90;;;-141.84;38.49;22218.84;4898538;28;20316;-62
2023/07/06 09:03:46;;;;;;;2.13;1.42;;;22.40;99.90;;;-141.84;38.49;22265.63;4904958;28;20844;-62
2023/07/06 09:06:20;;;;;;;1.98;1.48;;;22.50;99.90;;;-141.84;37.86;22395.78;4890736;29;20742;-62
2023/07/06 09:08:55;;;;;;;1.52;1.42;;;22.60;99.90;;;-141.84;36.73;22377.47;4891514;29;20274;-62
2023/07/06 09:11:23;;;;;;;2.15;1.70;;;22.90;99.90;;;-141.84;36.45;22253.44;4913791;29;20717;-62
2023/07/06 09:13:55;;;;;;;1.63;1.30;;;22.80;99.90;;;-141.84;36.16;22302.25;4909782;29;20234;-62
2023/07/06 09:16:25;;;;;;;2.92;1.23;;;22.80;99.90;;;-141.84;36.64;22277.84;4902391;29;20234;-62
2023/07/06 09:18:55;;;;;;;1.90;1.40;;;22.70;99.90;;;-141.84;37.21;22294.09;4909934;29;20225;-63
2023/07/06 09:21:26;;;;;;;2.38;1.60;;;22.70;99.90;;;-141.84;37.10;22324.59;4909214;29;20264;-63
2023/07/06 09:23:59;;;;;;;1.60;1.23;;;22.80;99.90;;;-141.84;36.08;22361.22;4908709;29;20230;-62
2023/07/06 09:26:33;;;;;;;4.05;1.60;;;22.80;99.90;;;-141.84;36.15;22383.59;4901493;28;20253;-62
2023/07/06 09:29:20;;;;;;;3.75;1.60;;;23.00;99.90;;;-141.84;35.32;22426.28;4909811;28;20241;-63
2023/07/06 09:31:49;;;;;;;2.60;1.40;;;23.20;99.90;;;-141.84;34.87;22403.94;4908602;28;20234;-63
2023/07/06 09:34:32;;;;;;;2.17;1.63;;;23.10;99.90;;;-141.84;35.49;22493.41;4906807;28;20873;-62
2023/07/06 09:37:01;;;;;;;2.25;1.45;;;23.20;99.90;;;-141.84;34.85;22487.31;4900337;29;20710;-62
2023/07/06 09:39:30;;;;;;;1.55;1.45;;;23.40;99.90;;;-141.84;34.54;22460.88;4890098;29;20580;-63
2023/07/06 09:42:01;;;;;;;1.60;1.30;;;23.30;99.90;;;-141.84;35.02;22351.03;4890608;29;20298;-63
2023/07/06 09:44:33;;;;;;;2.33;1.45;;;23.10;99.90;;;-141.84;35.48;22306.31;4882201;28;20227;-63
2023/07/06 09:47:03;;;;;;;2.45;1.30;;;23.00;99.90;;;-141.84;35.46;22273.78;4890031;28;20730;-63
2023/07/06 09:49:48;;;;;;;2.03;1.30;;;22.80;99.90;;;-141.84;35.39;22200.56;4889620;29;20673;-62
2023/07/06 09:52:19;;;;;;;1.75;1.23;;;22.50;99.90;;;-141.84;35.08;22298.16;4888153;29;20660;-64
2023/07/06 09:55:00;;;;;;;3.20;1.55;;;22.80;99.90;;;-141.84;34.98;22328.69;4889929;29;20235;-63
2023/07/06 09:57:35;;;;;;;3.13;1.42;;;22.80;99.90;;;-141.84;34.73;22412.06;4894309;29;20680;-62
2023/07/06 10:00:05;;;;;;;4.03;1.35;;;23.00;99.90;;;-141.84;33.33;22428.31;4907178;29;20257;-62
2023/07/06 10:02:49;;;;;;;3.58;1.40;;;23.20;99.90;;;-141.84;33.75;22450.69;4883416;29;20217;-63
2023/07/06 10:05:36;;;;;;;1.77;1.30;;;23.30;99.90;;;-141.84;34.05;22440.53;4889142;29;20252;-62
2023/07/06 10:08:12;;;;;;;3.83;1.40;;;23.20;99.90;;;-141.84;34.38;22412.06;4889214;29;20226;-62
2023/07/06 10:10:59;;;;;;;1.77;1.30;;;23.20;99.90;;;-141.84;34.90;22371.38;4882100;29;20241;-62
2023/07/06 10:13:38;;;;;;;1.80;1.48;;;23.20;99.90;;;-141.84;35.16;22389.69;4908528;29;20240;-63
2023/07/06 10:16:23;;;;;;;3.70;1.52;;;23.20;99.90;;;-141.84;34.00;22446.63;4890465;29;20238;-62
2023/07/06 10:18:56;;;;;;;4.28;1.55;;;23.20;99.90;;;-141.84;33.77;22462.91;4892163;29;20239;-62
2023/07/06 10:21:36;;;;;;;1.58;1.30;;;23.30;99.90;;;-141.84;34.00;22483.25;4907817;28;20259;-63
2023/07/06 10:24:18;;;;;;;1.58;1.48;;;23.30;99.90;;;-141.84;34.06;22580.84;4905111;29;20290;-63